sensor_id;sensor_type;location;lat;lon;timestamp;P1;durP1;ratioP1;P2;durP2;ratioP2
77838;SDS011;67034;43.226;27.932;2023-08-01T00:01:53;6.07;;;5.00;;
77838;SDS011;67034;43.226;27.932;2023-08-01T00:04:19;6.25;;;5.05;;
77838;SDS011;67034;43.226;27.932;2023-08-01T00:06:44;7.70;;;5.40;;
77838;SDS011;67034;43.226;27.932;2023-08-01T00:09:13;7.28;;;5.60;;
77838;SDS011;67034;43.226;27.932;2023-08-01T00:11:39;5.90;;;4.75;;
77838;SDS011;67034;43.226;27.932;2023-08-01T00:14:06;6.55;;;4.57;;
77838;SDS011;67034;43.226;27.932;2023-08-01T00:16:32;5.88;;;4.68;;
77838;SDS011;67034;43.226;27.932;2023-08-01T00:18:58;8.23;;;4.90;;
77838;SDS011;67034;43.226;27.932;2023-08-01T00:21:23;5.40;;;4.88;;
77838;SDS011;67034;43.226;27.932;2023-08-01T00:23:49;6.00;;;4.63;;
77838;SDS011;67034;43.226;27.932;2023-08-01T00:26:15;5.40;;;4.78;;
77838;SDS011;67034;43.226;27.932;2023-08-01T00:28:40;5.90;;;5.22;;
77838;SDS011;67034;43.226;27.932;2023-08-01T00:31:08;5.70;;;5.10;;
77838;SDS011;67034;43.226;27.932;2023-08-01T00:33:34;6.45;;;5.25;;
77838;SDS011;67034;43.226;27.932;2023-08-01T00:36:00;6.20;;;5.03;;
77838;SDS011;67034;43.226;27.932;2023-08-01T00:38:26;6.97;;;4.90;;
77838;SDS011;67034;43.226;27.932;2023-08-01T00:40:51;6.20;;;5.13;;
77838;SDS011;67034;43.226;27.932;2023-08-01T00:43:17;5.72;;;4.93;;
77838;SDS011;67034;43.226;27.932;2023-08-01T00:45:43;6.50;;;5.07;;
77838;SDS011;67034;43.226;27.932;2023-08-01T00:48:11;7.00;;;5.43;;
77838;SDS011;67034;43.226;27.932;2023-08-01T00:50:37;7.72;;;5.50;;
77838;SDS011;67034;43.226;27.932;2023-08-01T00:53:04;6.25;;;5.63;;
77838;SDS011;67034;43.226;27.932;2023-08-01T00:55:31;6.20;;;5.15;;
77838;SDS011;67034;43.226;27.932;2023-08-01T00:57:59;6.13;;;4.70;;
77838;SDS011;67034;43.226;27.932;2023-08-01T01:00:24;7.65;;;5.72;;
77838;SDS011;67034;43.226;27.932;2023-08-01T01:02:50;5.53;;;4.60;;
77838;SDS011;67034;43.226;27.932;2023-08-01T01:05:18;7.43;;;5.40;;
77838;SDS011;67034;43.226;27.932;2023-08-01T01:07:45;6.88;;;5.10;;
77838;SDS011;67034;43.226;27.932;2023-08-01T01:10:11;6.57;;;5.20;;
77838;SDS011;67034;43.226;27.932;2023-08-01T01:12:37;6.22;;;5.35;;
77838;SDS011;67034;43.226;27.932;2023-08-01T01:15:03;6.85;;;5.18;;
77838;SDS011;67034;43.226;27.932;2023-08-01T01:17:30;7.90;;;5.35;;
77838;SDS011;67034;43.226;27.932;2023-08-01T01:19:56;9.40;;;5.63;;
77838;SDS011;67034;43.226;27.932;2023-08-01T01:22:24;9.63;;;6.15;;
77838;SDS011;67034;43.226;27.932;2023-08-01T01:24:51;7.30;;;5.68;;
77838;SDS011;67034;43.226;27.932;2023-08-01T01:27:18;6.35;;;5.18;;
77838;SDS011;67034;43.226;27.932;2023-08-01T01:29:44;10.32;;;5.47;;
77838;SDS011;67034;43.226;27.932;2023-08-01T01:32:12;8.25;;;5.35;;
77838;SDS011;67034;43.226;27.932;2023-08-01T01:34:39;6.53;;;5.13;;
77838;SDS011;67034;43.226;27.932;2023-08-01T01:37:04;8.27;;;5.63;;
77838;SDS011;67034;43.226;27.932;2023-08-01T01:39:31;7.05;;;5.72;;
77838;SDS011;67034;43.226;27.932;2023-08-01T01:41:57;7.03;;;5.15;;
77838;SDS011;67034;43.226;27.932;2023-08-01T01:44:23;6.57;;;5.05;;
77838;SDS011;67034;43.226;27.932;2023-08-01T01:46:48;6.57;;;5.18;;
77838;SDS011;67034;43.226;27.932;2023-08-01T01:49:14;7.30;;;5.55;;
77838;SDS011;67034;43.226;27.932;2023-08-01T01:51:40;7.30;;;5.75;;
77838;SDS011;67034;43.226;27.932;2023-08-01T01:54:06;5.88;;;4.85;;
77838;SDS011;67034;43.226;27.932;2023-08-01T01:56:33;5.38;;;4.65;;
77838;SDS011;67034;43.226;27.932;2023-08-01T01:59:00;6.57;;;5.05;;
77838;SDS011;67034;43.226;27.932;2023-08-01T02:01:26;5.75;;;4.55;;
77838;SDS011;67034;43.226;27.932;2023-08-01T02:03:52;5.90;;;4.93;;
77838;SDS011;67034;43.226;27.932;2023-08-01T02:06:18;6.30;;;4.88;;
77838;SDS011;67034;43.226;27.932;2023-08-01T02:08:43;6.28;;;4.88;;
77838;SDS011;67034;43.226;27.932;2023-08-01T02:11:10;5.70;;;4.43;;
77838;SDS011;67034;43.226;27.932;2023-08-01T02:13:37;6.18;;;4.57;;
77838;SDS011;67034;43.226;27.932;2023-08-01T02:16:03;6.07;;;4.60;;
77838;SDS011;67034;43.226;27.932;2023-08-01T02:18:28;4.97;;;4.38;;
77838;SDS011;67034;43.226;27.932;2023-08-01T02:20:54;5.47;;;4.80;;
77838;SDS011;67034;43.226;27.932;2023-08-01T02:23:20;8.00;;;5.05;;
77838;SDS011;67034;43.226;27.932;2023-08-01T02:25:45;4.85;;;4.15;;
77838;SDS011;67034;43.226;27.932;2023-08-01T02:28:11;5.78;;;4.38;;
77838;SDS011;67034;43.226;27.932;2023-08-01T02:30:39;7.00;;;4.68;;
77838;SDS011;67034;43.226;27.932;2023-08-01T02:33:04;6.07;;;4.82;;
77838;SDS011;67034;43.226;27.932;2023-08-01T02:35:30;5.65;;;5.10;;
77838;SDS011;67034;43.226;27.932;2023-08-01T02:37:56;5.22;;;4.20;;
77838;SDS011;67034;43.226;27.932;2023-08-01T02:40:21;5.35;;;4.45;;
77838;SDS011;67034;43.226;27.932;2023-08-01T02:42:47;5.15;;;4.43;;
77838;SDS011;67034;43.226;27.932;2023-08-01T02:45:13;5.43;;;4.60;;
77838;SDS011;67034;43.226;27.932;2023-08-01T02:47:40;6.30;;;4.28;;
77838;SDS011;67034;43.226;27.932;2023-08-01T02:50:06;5.15;;;4.32;;
77838;SDS011;67034;43.226;27.932;2023-08-01T02:52:33;5.47;;;4.65;;
77838;SDS011;67034;43.226;27.932;2023-08-01T02:54:58;5.80;;;4.85;;
77838;SDS011;67034;43.226;27.932;2023-08-01T02:57:24;5.07;;;4.55;;
77838;SDS011;67034;43.226;27.932;2023-08-01T02:59:50;4.93;;;4.43;;
77838;SDS011;67034;43.226;27.932;2023-08-01T03:02:15;7.53;;;5.10;;
77838;SDS011;67034;43.226;27.932;2023-08-01T03:04:43;5.05;;;4.45;;
77838;SDS011;67034;43.226;27.932;2023-08-01T03:07:08;5.22;;;4.68;;
77838;SDS011;67034;43.226;27.932;2023-08-01T03:09:34;5.28;;;4.38;;
77838;SDS011;67034;43.226;27.932;2023-08-01T03:12:00;6.82;;;4.63;;
77838;SDS011;67034;43.226;27.932;2023-08-01T03:14:26;5.45;;;4.55;;
77838;SDS011;67034;43.226;27.932;2023-08-01T03:16:51;8.48;;;4.65;;
77838;SDS011;67034;43.226;27.932;2023-08-01T03:19:17;6.15;;;5.20;;
77838;SDS011;67034;43.226;27.932;2023-08-01T03:21:44;6.05;;;4.93;;
77838;SDS011;67034;43.226;27.932;2023-08-01T03:24:10;5.72;;;4.85;;
77838;SDS011;67034;43.226;27.932;2023-08-01T03:26:36;5.88;;;4.80;;
77838;SDS011;67034;43.226;27.932;2023-08-01T03:29:02;5.95;;;4.85;;
77838;SDS011;67034;43.226;27.932;2023-08-01T03:31:28;6.90;;;4.80;;
77838;SDS011;67034;43.226;27.932;2023-08-01T03:33:54;7.60;;;5.40;;
77838;SDS011;67034;43.226;27.932;2023-08-01T03:36:20;7.15;;;5.28;;
77838;SDS011;67034;43.226;27.932;2023-08-01T03:38:47;6.22;;;5.07;;
77838;SDS011;67034;43.226;27.932;2023-08-01T03:41:13;7.00;;;5.18;;
77838;SDS011;67034;43.226;27.932;2023-08-01T03:43:39;5.93;;;4.65;;
77838;SDS011;67034;43.226;27.932;2023-08-01T03:46:04;7.15;;;5.07;;
77838;SDS011;67034;43.226;27.932;2023-08-01T03:48:30;6.80;;;4.85;;
77838;SDS011;67034;43.226;27.932;2023-08-01T03:50:56;7.60;;;5.35;;
77838;SDS011;67034;43.226;27.932;2023-08-01T03:53:22;7.20;;;5.22;;
77838;SDS011;67034;43.226;27.932;2023-08-01T03:55:50;6.63;;;4.97;;
77838;SDS011;67034;43.226;27.932;2023-08-01T03:58:16;6.45;;;5.50;;
77838;SDS011;67034;43.226;27.932;2023-08-01T04:00:42;6.97;;;4.97;;
77838;SDS011;67034;43.226;27.932;2023-08-01T04:03:07;6.07;;;5.00;;
77838;SDS011;67034;43.226;27.932;2023-08-01T04:05:33;8.13;;;5.00;;
77838;SDS011;67034;43.226;27.932;2023-08-01T04:07:59;6.10;;;5.38;;
77838;SDS011;67034;43.226;27.932;2023-08-01T04:10:25;7.10;;;5.43;;
77838;SDS011;67034;43.226;27.932;2023-08-01T04:12:52;6.90;;;5.10;;
77838;SDS011;67034;43.226;27.932;2023-08-01T04:15:18;6.70;;;5.05;;
77838;SDS011;67034;43.226;27.932;2023-08-01T04:17:44;5.43;;;4.68;;
77838;SDS011;67034;43.226;27.932;2023-08-01T04:20:10;10.18;;;5.13;;
77838;SDS011;67034;43.226;27.932;2023-08-01T04:22:36;5.70;;;5.03;;
77838;SDS011;67034;43.226;27.932;2023-08-01T04:25:02;7.25;;;4.88;;
77838;SDS011;67034;43.226;27.932;2023-08-01T04:27:28;5.65;;;4.50;;
77838;SDS011;67034;43.226;27.932;2023-08-01T04:29:55;5.50;;;4.55;;
77838;SDS011;67034;43.226;27.932;2023-08-01T04:32:21;7.38;;;4.57;;
77838;SDS011;67034;43.226;27.932;2023-08-01T04:34:47;5.80;;;4.80;;
77838;SDS011;67034;43.226;27.932;2023-08-01T04:37:12;5.50;;;4.03;;
77838;SDS011;67034;43.226;27.932;2023-08-01T04:39:38;5.38;;;4.78;;
77838;SDS011;67034;43.226;27.932;2023-08-01T04:42:04;5.45;;;4.38;;
77838;SDS011;67034;43.226;27.932;2023-08-01T04:44:31;7.47;;;4.65;;
77838;SDS011;67034;43.226;27.932;2023-08-01T04:46:58;5.55;;;4.22;;
77838;SDS011;67034;43.226;27.932;2023-08-01T04:49:23;6.13;;;4.70;;
77838;SDS011;67034;43.226;27.932;2023-08-01T04:51:49;5.53;;;4.60;;
77838;SDS011;67034;43.226;27.932;2023-08-01T04:54:15;6.45;;;4.43;;
77838;SDS011;67034;43.226;27.932;2023-08-01T04:56:41;4.97;;;4.07;;
77838;SDS011;67034;43.226;27.932;2023-08-01T04:59:06;4.88;;;4.25;;
77838;SDS011;67034;43.226;27.932;2023-08-01T05:01:32;4.88;;;4.03;;
77838;SDS011;67034;43.226;27.932;2023-08-01T05:03:59;5.03;;;3.88;;
77838;SDS011;67034;43.226;27.932;2023-08-01T05:06:25;4.40;;;3.60;;
77838;SDS011;67034;43.226;27.932;2023-08-01T05:08:52;4.97;;;3.67;;
77838;SDS011;67034;43.226;27.932;2023-08-01T05:11:18;6.10;;;3.78;;
77838;SDS011;67034;43.226;27.932;2023-08-01T05:13:44;8.20;;;4.00;;
77838;SDS011;67034;43.226;27.932;2023-08-01T05:16:10;4.65;;;3.97;;
77838;SDS011;67034;43.226;27.932;2023-08-01T05:18:35;5.15;;;4.18;;
77838;SDS011;67034;43.226;27.932;2023-08-01T05:21:03;4.80;;;3.70;;
77838;SDS011;67034;43.226;27.932;2023-08-01T05:23:28;4.78;;;3.25;;
77838;SDS011;67034;43.226;27.932;2023-08-01T05:25:54;4.70;;;3.70;;
77838;SDS011;67034;43.226;27.932;2023-08-01T05:28:20;4.10;;;3.70;;
77838;SDS011;67034;43.226;27.932;2023-08-01T05:30:45;4.40;;;3.88;;
77838;SDS011;67034;43.226;27.932;2023-08-01T05:33:12;3.66;;;2.99;;
77838;SDS011;67034;43.226;27.932;2023-08-01T05:35:37;6.10;;;3.35;;
77838;SDS011;67034;43.226;27.932;2023-08-01T05:38:05;3.72;;;3.25;;
77838;SDS011;67034;43.226;27.932;2023-08-01T05:40:30;4.88;;;3.88;;
77838;SDS011;67034;43.226;27.932;2023-08-01T05:42:56;3.83;;;2.95;;
77838;SDS011;67034;43.226;27.932;2023-08-01T05:45:22;3.67;;;3.30;;
77838;SDS011;67034;43.226;27.932;2023-08-01T05:47:48;3.03;;;2.72;;
77838;SDS011;67034;43.226;27.932;2023-08-01T05:50:15;3.97;;;2.90;;
77838;SDS011;67034;43.226;27.932;2023-08-01T05:52:41;3.38;;;3.03;;
77838;SDS011;67034;43.226;27.932;2023-08-01T05:55:08;4.95;;;3.08;;
77838;SDS011;67034;43.226;27.932;2023-08-01T05:57:34;4.05;;;3.03;;
77838;SDS011;67034;43.226;27.932;2023-08-01T06:00:00;2.83;;;2.42;;
77838;SDS011;67034;43.226;27.932;2023-08-01T06:02:26;4.82;;;2.75;;
77838;SDS011;67034;43.226;27.932;2023-08-01T06:04:52;3.60;;;2.70;;
77838;SDS011;67034;43.226;27.932;2023-08-01T06:07:18;4.82;;;2.92;;
77838;SDS011;67034;43.226;27.932;2023-08-01T06:09:48;14.32;;;9.32;;
77838;SDS011;67034;43.226;27.932;2023-08-01T06:12:15;20.88;;;12.48;;
77838;SDS011;67034;43.226;27.932;2023-08-01T06:14:41;17.52;;;11.05;;
77838;SDS011;67034;43.226;27.932;2023-08-01T06:17:08;15.38;;;9.88;;
77838;SDS011;67034;43.226;27.932;2023-08-01T06:19:34;17.63;;;10.02;;
77838;SDS011;67034;43.226;27.932;2023-08-01T06:21:59;17.25;;;11.70;;
77838;SDS011;67034;43.226;27.932;2023-08-01T06:24:25;18.45;;;10.88;;
77838;SDS011;67034;43.226;27.932;2023-08-01T06:26:51;17.13;;;10.15;;
77838;SDS011;67034;43.226;27.932;2023-08-01T06:29:18;16.85;;;9.40;;
77838;SDS011;67034;43.226;27.932;2023-08-01T06:31:43;15.75;;;10.45;;
77838;SDS011;67034;43.226;27.932;2023-08-01T06:34:09;18.85;;;10.52;;
77838;SDS011;67034;43.226;27.932;2023-08-01T06:36:35;17.05;;;11.05;;
77838;SDS011;67034;43.226;27.932;2023-08-01T06:39:01;12.80;;;9.52;;
77838;SDS011;67034;43.226;27.932;2023-08-01T06:41:26;18.13;;;10.68;;
77838;SDS011;67034;43.226;27.932;2023-08-01T06:43:52;14.18;;;8.57;;
77838;SDS011;67034;43.226;27.932;2023-08-01T06:46:19;9.98;;;6.75;;
77838;SDS011;67034;43.226;27.932;2023-08-01T06:48:45;14.05;;;8.43;;
77838;SDS011;67034;43.226;27.932;2023-08-01T06:51:10;12.80;;;7.78;;
77838;SDS011;67034;43.226;27.932;2023-08-01T06:53:36;12.25;;;7.20;;
77838;SDS011;67034;43.226;27.932;2023-08-01T06:56:02;10.68;;;7.40;;
77838;SDS011;67034;43.226;27.932;2023-08-01T06:58:28;4.88;;;3.95;;
77838;SDS011;67034;43.226;27.932;2023-08-01T07:00:53;4.00;;;2.55;;
77838;SDS011;67034;43.226;27.932;2023-08-01T07:03:20;3.40;;;2.50;;
77838;SDS011;67034;43.226;27.932;2023-08-01T07:05:46;8.63;;;5.57;;
77838;SDS011;67034;43.226;27.932;2023-08-01T07:08:12;9.65;;;6.78;;
77838;SDS011;67034;43.226;27.932;2023-08-01T07:10:38;9.90;;;6.35;;
77838;SDS011;67034;43.226;27.932;2023-08-01T07:13:06;10.07;;;6.28;;
77838;SDS011;67034;43.226;27.932;2023-08-01T07:15:31;3.78;;;2.95;;
77838;SDS011;67034;43.226;27.932;2023-08-01T07:17:58;7.88;;;4.40;;
77838;SDS011;67034;43.226;27.932;2023-08-01T07:20:25;4.55;;;2.70;;
77838;SDS011;67034;43.226;27.932;2023-08-01T07:22:51;3.28;;;2.60;;
77838;SDS011;67034;43.226;27.932;2023-08-01T07:25:17;4.93;;;2.50;;
77838;SDS011;67034;43.226;27.932;2023-08-01T07:27:44;4.40;;;2.45;;
77838;SDS011;67034;43.226;27.932;2023-08-01T07:30:11;5.82;;;2.60;;
77838;SDS011;67034;43.226;27.932;2023-08-01T07:32:37;5.60;;;2.83;;
77838;SDS011;67034;43.226;27.932;2023-08-01T07:35:03;5.03;;;2.88;;
77838;SDS011;67034;43.226;27.932;2023-08-01T07:37:31;3.90;;;3.17;;
77838;SDS011;67034;43.226;27.932;2023-08-01T07:39:58;4.05;;;2.97;;
77838;SDS011;67034;43.226;27.932;2023-08-01T07:42:24;3.88;;;2.72;;
77838;SDS011;67034;43.226;27.932;2023-08-01T07:44:49;2.90;;;2.47;;
77838;SDS011;67034;43.226;27.932;2023-08-01T07:47:15;4.07;;;2.80;;
77838;SDS011;67034;43.226;27.932;2023-08-01T07:49:41;3.83;;;3.17;;
77838;SDS011;67034;43.226;27.932;2023-08-01T07:52:06;3.70;;;3.20;;
77838;SDS011;67034;43.226;27.932;2023-08-01T07:54:34;3.35;;;2.70;;
77838;SDS011;67034;43.226;27.932;2023-08-01T07:57:00;16.73;;;8.52;;
77838;SDS011;67034;43.226;27.932;2023-08-01T07:59:26;15.60;;;8.35;;
77838;SDS011;67034;43.226;27.932;2023-08-01T08:01:52;19.30;;;8.27;;
77838;SDS011;67034;43.226;27.932;2023-08-01T08:04:18;9.15;;;6.53;;
77838;SDS011;67034;43.226;27.932;2023-08-01T08:06:43;18.17;;;7.82;;
77838;SDS011;67034;43.226;27.932;2023-08-01T08:09:09;14.00;;;8.57;;
77838;SDS011;67034;43.226;27.932;2023-08-01T08:11:36;17.95;;;7.78;;
77838;SDS011;67034;43.226;27.932;2023-08-01T08:14:02;20.00;;;7.03;;
77838;SDS011;67034;43.226;27.932;2023-08-01T08:16:28;12.80;;;6.85;;
77838;SDS011;67034;43.226;27.932;2023-08-01T08:18:54;15.15;;;7.82;;
77838;SDS011;67034;43.226;27.932;2023-08-01T08:21:20;13.32;;;6.72;;
77838;SDS011;67034;43.226;27.932;2023-08-01T08:23:46;13.50;;;6.85;;
77838;SDS011;67034;43.226;27.932;2023-08-01T08:26:11;18.33;;;8.80;;
77838;SDS011;67034;43.226;27.932;2023-08-01T08:28:39;9.73;;;7.95;;
77838;SDS011;67034;43.226;27.932;2023-08-01T08:31:07;8.85;;;7.22;;
77838;SDS011;67034;43.226;27.932;2023-08-01T08:33:33;12.32;;;6.20;;
77838;SDS011;67034;43.226;27.932;2023-08-01T08:35:58;7.85;;;5.03;;
77838;SDS011;67034;43.226;27.932;2023-08-01T08:38:24;13.18;;;6.45;;
77838;SDS011;67034;43.226;27.932;2023-08-01T08:40:52;15.05;;;5.95;;
77838;SDS011;67034;43.226;27.932;2023-08-01T08:43:26;7.18;;;5.13;;
77838;SDS011;67034;43.226;27.932;2023-08-01T08:45:53;10.75;;;5.82;;
77838;SDS011;67034;43.226;27.932;2023-08-01T08:48:22;10.75;;;5.38;;
77838;SDS011;67034;43.226;27.932;2023-08-01T08:50:51;11.38;;;5.30;;
77838;SDS011;67034;43.226;27.932;2023-08-01T08:53:17;10.15;;;5.13;;
77838;SDS011;67034;43.226;27.932;2023-08-01T08:55:43;6.05;;;5.07;;
77838;SDS011;67034;43.226;27.932;2023-08-01T08:58:09;14.90;;;4.70;;
77838;SDS011;67034;43.226;27.932;2023-08-01T09:00:35;11.15;;;6.50;;
77838;SDS011;67034;43.226;27.932;2023-08-01T09:03:03;18.20;;;5.80;;
77838;SDS011;67034;43.226;27.932;2023-08-01T09:05:30;11.75;;;5.22;;
77838;SDS011;67034;43.226;27.932;2023-08-01T09:10:28;13.90;;;5.43;;
77838;SDS011;67034;43.226;27.932;2023-08-01T09:12:55;10.20;;;5.00;;
77838;SDS011;67034;43.226;27.932;2023-08-01T09:15:21;8.02;;;5.57;;
77838;SDS011;67034;43.226;27.932;2023-08-01T09:17:49;13.07;;;5.30;;
77838;SDS011;67034;43.226;27.932;2023-08-01T09:20:16;14.88;;;5.57;;
77838;SDS011;67034;43.226;27.932;2023-08-01T09:22:42;8.23;;;4.82;;
77838;SDS011;67034;43.226;27.932;2023-08-01T09:25:09;19.17;;;5.50;;
77838;SDS011;67034;43.226;27.932;2023-08-01T09:27:34;10.27;;;4.88;;
77838;SDS011;67034;43.226;27.932;2023-08-01T09:30:04;9.13;;;4.80;;
77838;SDS011;67034;43.226;27.932;2023-08-01T09:32:32;19.30;;;6.82;;
77838;SDS011;67034;43.226;27.932;2023-08-01T09:34:59;14.45;;;5.15;;
77838;SDS011;67034;43.226;27.932;2023-08-01T09:37:38;5.57;;;4.13;;
77838;SDS011;67034;43.226;27.932;2023-08-01T09:40:06;13.68;;;5.05;;
77838;SDS011;67034;43.226;27.932;2023-08-01T09:42:37;11.32;;;4.57;;
77838;SDS011;67034;43.226;27.932;2023-08-01T09:45:05;7.45;;;4.50;;
77838;SDS011;67034;43.226;27.932;2023-08-01T09:47:36;6.70;;;4.90;;
77838;SDS011;67034;43.226;27.932;2023-08-01T09:50:02;8.02;;;4.65;;
77838;SDS011;67034;43.226;27.932;2023-08-01T09:52:28;11.23;;;4.82;;
77838;SDS011;67034;43.226;27.932;2023-08-01T09:54:55;15.32;;;5.00;;
77838;SDS011;67034;43.226;27.932;2023-08-01T09:57:21;6.50;;;5.15;;
77838;SDS011;67034;43.226;27.932;2023-08-01T09:59:47;8.98;;;4.70;;
77838;SDS011;67034;43.226;27.932;2023-08-01T10:02:15;8.40;;;4.72;;
77838;SDS011;67034;43.226;27.932;2023-08-01T10:04:44;7.25;;;4.85;;
77838;SDS011;67034;43.226;27.932;2023-08-01T10:07:11;11.30;;;4.50;;
77838;SDS011;67034;43.226;27.932;2023-08-01T10:09:38;19.52;;;6.13;;
77838;SDS011;67034;43.226;27.932;2023-08-01T10:12:07;12.07;;;5.50;;
77838;SDS011;67034;43.226;27.932;2023-08-01T10:14:38;13.35;;;4.78;;
77838;SDS011;67034;43.226;27.932;2023-08-01T10:17:04;13.50;;;5.30;;
77838;SDS011;67034;43.226;27.932;2023-08-01T10:19:31;11.88;;;4.95;;
77838;SDS011;67034;43.226;27.932;2023-08-01T10:22:00;9.47;;;5.03;;
77838;SDS011;67034;43.226;27.932;2023-08-01T10:24:26;12.98;;;4.70;;
77838;SDS011;67034;43.226;27.932;2023-08-01T10:26:53;7.18;;;5.10;;
77838;SDS011;67034;43.226;27.932;2023-08-01T10:29:20;7.40;;;5.28;;
77838;SDS011;67034;43.226;27.932;2023-08-01T10:31:53;10.25;;;4.90;;
77838;SDS011;67034;43.226;27.932;2023-08-01T10:34:19;22.02;;;5.60;;
77838;SDS011;67034;43.226;27.932;2023-08-01T10:36:54;6.97;;;4.60;;
77838;SDS011;67034;43.226;27.932;2023-08-01T10:39:21;10.77;;;4.20;;
77838;SDS011;67034;43.226;27.932;2023-08-01T10:41:55;7.90;;;4.32;;
77838;SDS011;67034;43.226;27.932;2023-08-01T10:44:23;11.48;;;5.22;;
77838;SDS011;67034;43.226;27.932;2023-08-01T10:46:50;6.60;;;4.22;;
77838;SDS011;67034;43.226;27.932;2023-08-01T10:49:17;7.70;;;5.07;;
77838;SDS011;67034;43.226;27.932;2023-08-01T10:51:43;5.45;;;4.60;;
77838;SDS011;67034;43.226;27.932;2023-08-01T10:54:19;8.48;;;5.15;;
77838;SDS011;67034;43.226;27.932;2023-08-01T10:56:48;7.15;;;4.38;;
77838;SDS011;67034;43.226;27.932;2023-08-01T10:59:15;13.32;;;5.10;;
77838;SDS011;67034;43.226;27.932;2023-08-01T11:01:47;33.42;;;7.05;;
77838;SDS011;67034;43.226;27.932;2023-08-01T11:04:15;8.25;;;4.72;;
77838;SDS011;67034;43.226;27.932;2023-08-01T11:06:45;30.40;;;6.63;;
77838;SDS011;67034;43.226;27.932;2023-08-01T11:09:15;5.15;;;4.63;;
77838;SDS011;67034;43.226;27.932;2023-08-01T11:11:42;24.15;;;6.10;;
77838;SDS011;67034;43.226;27.932;2023-08-01T11:14:08;7.65;;;4.95;;
77838;SDS011;67034;43.226;27.932;2023-08-01T11:16:33;5.40;;;4.63;;
77838;SDS011;67034;43.226;27.932;2023-08-01T11:19:01;28.60;;;6.80;;
77838;SDS011;67034;43.226;27.932;2023-08-01T11:21:26;21.02;;;5.75;;
77838;SDS011;67034;43.226;27.932;2023-08-01T11:23:52;28.40;;;6.63;;
77838;SDS011;67034;43.226;27.932;2023-08-01T11:26:18;7.40;;;5.32;;
77838;SDS011;67034;43.226;27.932;2023-08-01T11:28:44;7.72;;;3.95;;
77838;SDS011;67034;43.226;27.932;2023-08-01T11:31:10;9.10;;;4.47;;
77838;SDS011;67034;43.226;27.932;2023-08-01T11:33:37;8.10;;;5.72;;
77838;SDS011;67034;43.226;27.932;2023-08-01T11:36:05;8.60;;;4.63;;
77838;SDS011;67034;43.226;27.932;2023-08-01T11:38:32;6.55;;;5.38;;
77838;SDS011;67034;43.226;27.932;2023-08-01T11:40:59;11.77;;;5.03;;
77838;SDS011;67034;43.226;27.932;2023-08-01T11:43:26;19.38;;;6.05;;
77838;SDS011;67034;43.226;27.932;2023-08-01T11:45:52;19.85;;;6.00;;
77838;SDS011;67034;43.226;27.932;2023-08-01T11:48:24;11.63;;;5.13;;
77838;SDS011;67034;43.226;27.932;2023-08-01T11:50:55;18.65;;;5.05;;
77838;SDS011;67034;43.226;27.932;2023-08-01T11:53:23;8.43;;;4.53;;
77838;SDS011;67034;43.226;27.932;2023-08-01T11:55:49;14.95;;;5.35;;
77838;SDS011;67034;43.226;27.932;2023-08-01T11:58:27;5.53;;;4.50;;
77838;SDS011;67034;43.226;27.932;2023-08-01T12:01:00;9.07;;;4.60;;
77838;SDS011;67034;43.226;27.932;2023-08-01T12:03:27;7.93;;;4.53;;
77838;SDS011;67034;43.226;27.932;2023-08-01T12:06:01;9.52;;;4.20;;
77838;SDS011;67034;43.226;27.932;2023-08-01T12:08:31;7.13;;;4.28;;
77838;SDS011;67034;43.226;27.932;2023-08-01T12:10:57;7.85;;;4.80;;
77838;SDS011;67034;43.226;27.932;2023-08-01T12:13:24;12.50;;;4.55;;
77838;SDS011;67034;43.226;27.932;2023-08-01T12:15:50;8.27;;;5.10;;
77838;SDS011;67034;43.226;27.932;2023-08-01T12:18:21;26.55;;;6.53;;
77838;SDS011;67034;43.226;27.932;2023-08-01T12:20:47;51.22;;;7.95;;
77838;SDS011;67034;43.226;27.932;2023-08-01T12:23:13;5.65;;;4.13;;
77838;SDS011;67034;43.226;27.932;2023-08-01T12:25:40;24.92;;;5.90;;
77838;SDS011;67034;43.226;27.932;2023-08-01T12:28:06;44.58;;;6.63;;
77838;SDS011;67034;43.226;27.932;2023-08-01T12:30:32;8.27;;;4.10;;
77838;SDS011;67034;43.226;27.932;2023-08-01T12:32:59;5.55;;;3.72;;
77838;SDS011;67034;43.226;27.932;2023-08-01T12:35:25;9.82;;;5.55;;
77838;SDS011;67034;43.226;27.932;2023-08-01T12:37:52;22.27;;;5.35;;
77838;SDS011;67034;43.226;27.932;2023-08-01T12:40:19;18.50;;;5.10;;
77838;SDS011;67034;43.226;27.932;2023-08-01T12:42:46;21.90;;;5.47;;
77838;SDS011;67034;43.226;27.932;2023-08-01T12:45:12;19.13;;;5.32;;
77838;SDS011;67034;43.226;27.932;2023-08-01T12:47:38;9.10;;;4.85;;
77838;SDS011;67034;43.226;27.932;2023-08-01T12:50:04;15.90;;;5.40;;
77838;SDS011;67034;43.226;27.932;2023-08-01T12:52:31;13.95;;;5.20;;
77838;SDS011;67034;43.226;27.932;2023-08-01T12:54:57;11.52;;;5.60;;
77838;SDS011;67034;43.226;27.932;2023-08-01T12:57:22;27.70;;;5.68;;
77838;SDS011;67034;43.226;27.932;2023-08-01T12:59:50;24.83;;;5.68;;
77838;SDS011;67034;43.226;27.932;2023-08-01T13:02:15;19.27;;;5.00;;
77838;SDS011;67034;43.226;27.932;2023-08-01T13:04:41;21.48;;;5.70;;
77838;SDS011;67034;43.226;27.932;2023-08-01T13:07:07;16.08;;;4.45;;
77838;SDS011;67034;43.226;27.932;2023-08-01T13:09:33;5.33;;;4.00;;
77838;SDS011;67034;43.226;27.932;2023-08-01T13:11:59;6.78;;;4.20;;
77838;SDS011;67034;43.226;27.932;2023-08-01T13:14:25;15.98;;;4.63;;
77838;SDS011;67034;43.226;27.932;2023-08-01T13:16:52;11.85;;;3.83;;
77838;SDS011;67034;43.226;27.932;2023-08-01T13:19:18;10.38;;;4.10;;
77838;SDS011;67034;43.226;27.932;2023-08-01T13:21:43;9.93;;;3.67;;
77838;SDS011;67034;43.226;27.932;2023-08-01T13:24:09;14.00;;;4.13;;
77838;SDS011;67034;43.226;27.932;2023-08-01T13:26:35;6.43;;;3.63;;
77838;SDS011;67034;43.226;27.932;2023-08-01T13:29:01;9.82;;;3.90;;
77838;SDS011;67034;43.226;27.932;2023-08-01T13:31:27;14.55;;;4.53;;
77838;SDS011;67034;43.226;27.932;2023-08-01T13:33:55;22.05;;;4.43;;
77838;SDS011;67034;43.226;27.932;2023-08-01T13:36:20;36.28;;;5.45;;
77838;SDS011;67034;43.226;27.932;2023-08-01T13:38:46;6.80;;;3.80;;
77838;SDS011;67034;43.226;27.932;2023-08-01T13:41:13;18.10;;;4.25;;
77838;SDS011;67034;43.226;27.932;2023-08-01T13:43:39;10.70;;;3.80;;
77838;SDS011;67034;43.226;27.932;2023-08-01T13:46:09;48.63;;;6.55;;
77838;SDS011;67034;43.226;27.932;2023-08-01T13:48:37;17.90;;;4.40;;
77838;SDS011;67034;43.226;27.932;2023-08-01T13:51:04;13.35;;;3.83;;
77838;SDS011;67034;43.226;27.932;2023-08-01T13:53:30;13.23;;;3.72;;
77838;SDS011;67034;43.226;27.932;2023-08-01T13:55:55;38.30;;;5.90;;
77838;SDS011;67034;43.226;27.932;2023-08-01T13:58:21;28.48;;;5.10;;
77838;SDS011;67034;43.226;27.932;2023-08-01T14:00:47;108.70;;;13.52;;
77838;SDS011;67034;43.226;27.932;2023-08-01T14:03:12;11.93;;;4.00;;
77838;SDS011;67034;43.226;27.932;2023-08-01T14:05:38;16.10;;;12.32;;
77838;SDS011;67034;43.226;27.932;2023-08-01T14:08:05;28.80;;;7.20;;
77838;SDS011;67034;43.226;27.932;2023-08-01T14:10:31;9.73;;;3.95;;
77838;SDS011;67034;43.226;27.932;2023-08-01T14:12:56;9.48;;;4.72;;
77838;SDS011;67034;43.226;27.932;2023-08-01T14:15:22;30.65;;;6.97;;
77838;SDS011;67034;43.226;27.932;2023-08-01T14:17:48;21.92;;;5.80;;
77838;SDS011;67034;43.226;27.932;2023-08-01T14:20:14;10.77;;;4.30;;
77838;SDS011;67034;43.226;27.932;2023-08-01T14:22:40;11.50;;;6.80;;
77838;SDS011;67034;43.226;27.932;2023-08-01T14:25:08;22.15;;;6.32;;
77838;SDS011;67034;43.226;27.932;2023-08-01T14:27:34;38.72;;;7.43;;